Time;durP1;ratioP1;P1;durP2;ratioP2;P2;SDS_P1;SDS_P2;PMS_P1;PMS_P2;Temp;Humidity;BMP_temperature;BMP_pressure;BME280_temperature;BME280_humidity;BME280_pressure;Samples;Min_cycle;Max_cycle;Signal;HPM_P1;HPM_P2
2021/12/26 00:00:54;;;;;;;;;;;;;;;5.61;66.35;98647.53;5094712;28;20425;-82
2021/12/26 00:03:21;;;;;;;;;;;;;;;5.59;66.58;98647.78;5094654;28;19927;-78
2021/12/26 00:05:46;;;;;;;;;;;;;;;5.59;66.75;98653.09;5112762;28;20357;-79
2021/12/26 00:08:12;;;;;;;;;;;;;;;5.57;66.86;98644.59;5094705;28;19927;-79
2021/12/26 00:10:37;;;;;;;;;;;;;;;5.57;66.92;98644.59;5094597;28;20014;-77
2021/12/26 00:13:03;;;;;;;;;;;;;;;5.59;67.21;98649.63;5094127;28;19920;-78
2021/12/26 00:15:28;;;;;;;;;;;;;;;5.59;66.84;98645.16;5093830;28;20010;-82
2021/12/26 00:17:54;;;;;;;;;;;;;;;5.60;67.16;98638.78;5094134;28;19962;-78
2021/12/26 00:20:20;;;;;;;;;;;;;;;5.62;67.04;98638.53;5094204;28;20392;-79
2021/12/26 00:22:46;;;;;;;;;;;;;;;5.64;66.76;98644.38;5094025;28;19973;-82
2021/12/26 00:25:12;;;;;;;;;;;;;;;5.66;66.65;98636.97;5094630;28;19920;-79
2021/12/26 00:27:37;;;;;;;;;;;;;;;5.67;67.10;98635.13;5093197;28;20302;-77
2021/12/26 00:30:08;;;;;;;;;;;;;;;5.69;66.58;98641.78;5094692;28;19930;-77
2021/12/26 00:32:35;;;;;;;;;;;;;;;5.71;66.51;98638.84;5093260;28;19920;-77
2021/12/26 00:35:00;;;;;;;;;;;;;;;5.72;66.73;98637.81;5094412;28;19916;-80
2021/12/26 00:37:26;;;;;;;;;;;;;;;5.73;66.84;98634.09;5094290;28;19924;-84
2021/12/26 00:39:51;;;;;;;;;;;;;;;5.75;66.66;98643.41;5094049;28;19920;-81
2021/12/26 00:42:16;;;;;;;;;;;;;;;5.74;66.32;98644.47;5094035;28;19989;-81
2021/12/26 00:44:42;;;;;;;;;;;;;;;5.75;66.67;98645.28;5093859;28;19966;-72
2021/12/26 00:47:08;;;;;;;;;;;;;;;5.74;66.33;98644.47;5112209;28;19924;-72
2021/12/26 00:49:34;;;;;;;;;;;;;;;5.75;66.89;98642.63;5111567;28;19919;-72
2021/12/26 00:51:59;;;;;;;;;;;;;;;5.74;66.32;98647.09;5111053;28;19919;-72
2021/12/26 00:54:24;;;;;;;;;;;;;;;5.74;66.18;98644.47;5093087;28;19956;-71
2021/12/26 00:56:50;;;;;;;;;;;;;;;5.73;66.84;98658.78;5111205;28;20367;-71
2021/12/26 00:59:15;;;;;;;;;;;;;;;5.72;66.43;98659.03;5111980;28;19958;-71
2021/12/26 01:01:41;;;;;;;;;;;;;;;5.69;66.49;98659.53;5112409;28;20336;-71
2021/12/26 01:04:06;;;;;;;;;;;;;;;5.68;66.76;98652.66;5111572;28;20011;-71
2021/12/26 01:06:31;;;;;;;;;;;;;;;5.67;67.02;98657.13;5111220;28;19920;-70
2021/12/26 01:08:57;;;;;;;;;;;;;;;5.66;66.93;98655.53;5112109;28;19919;-71
2021/12/26 01:11:35;;;;;;;;;;;;;;;5.64;67.15;98648.88;5111826;28;19916;-71
2021/12/26 01:14:01;;;;;;;;;;;;;;;5.64;67.04;98652.34;5107793;28;19928;-71
2021/12/26 01:16:28;;;;;;;;;;;;;;;5.64;66.88;98654.19;5112159;28;20061;-70
2021/12/26 01:18:59;;;;;;;;;;;;;;;5.63;66.82;98650.75;5111614;28;20402;-71
2021/12/26 01:21:26;;;;;;;;;;;;;;;5.61;67.23;98652.84;5111676;28;19924;-71
2021/12/26 01:23:53;;;;;;;;;;;;;;;5.58;66.66;98643.53;5110234;28;20014;-70
2021/12/26 01:26:19;;;;;;;;;;;;;;;5.59;66.75;98657.59;5093305;28;19916;-71
2021/12/26 01:28:44;;;;;;;;;;;;;;;5.56;66.86;98650.94;5110970;28;19969;-71
2021/12/26 01:31:10;;;;;;;;;;;;;;;5.53;66.55;98650.66;5111046;28;19916;-73
2021/12/26 01:33:35;;;;;;;;;;;;;;;5.48;66.68;98640.81;5089270;28;19920;-73
2021/12/26 01:36:01;;;;;;;;;;;;;;;5.41;66.83;98640.22;5111813;28;20371;-72
2021/12/26 01:38:26;;;;;;;;;;;;;;;5.35;65.87;98641.22;5111601;28;19955;-71
2021/12/26 01:40:54;;;;;;;;;;;;;;;5.25;65.29;98636.63;5111426;28;19916;-72
2021/12/26 01:43:21;;;;;;;;;;;;;;;5.15;65.14;98649.78;5113076;28;19959;-72
2021/12/26 01:45:47;;;;;;;;;;;;;;;5.05;65.54;98653.91;5115655;28;19931;-71
2021/12/26 01:48:13;;;;;;;;;;;;;;;4.93;65.41;98662.00;5097666;28;20367;-70
2021/12/26 01:50:39;;;;;;;;;;;;;;;4.83;66.00;98658.44;5096907;28;19920;-70
2021/12/26 01:53:05;;;;;;;;;;;;;;;4.73;65.74;98661.78;5114940;28;19927;-70
2021/12/26 01:55:47;;;;;;;;;;;;;;;4.62;66.34;98660.84;5115741;28;19916;-70
2021/12/26 01:58:13;;;;;;;;;;;;;;;4.52;66.35;98661.50;5115556;28;20350;-72
2021/12/26 02:00:40;;;;;;;;;;;;;;;4.45;66.79;98656.38;5115168;28;20061;-72
2021/12/26 02:03:05;;;;;;;;;;;;;;;4.38;67.00;98655.78;5121078;27;19919;-72
2021/12/26 02:05:30;;;;;;;;;;;;;;;4.29;66.79;98662.53;5115305;28;19927;-72
2021/12/26 02:07:55;;;;;;;;;;;;;;;4.21;67.04;98660.31;5115305;28;19924;-70
2021/12/26 02:10:21;;;;;;;;;;;;;;;4.13;66.98;98677.41;5115561;28;19919;-71
2021/12/26 02:12:46;;;;;;;;;;;;;;;4.04;67.35;98666.44;5114451;28;19928;-71
2021/12/26 02:15:11;;;;;;;;;;;;;;;3.96;67.90;98664.19;5115880;28;19994;-71
2021/12/26 02:17:37;;;;;;;;;;;;;;;3.90;68.66;98659.88;5115275;28;19919;-71
2021/12/26 02:20:14;;;;;;;;;;;;;;;3.85;69.36;98645.50;5096291;28;19934;-70
2021/12/26 02:22:43;;;;;;;;;;;;;;;3.84;69.76;98653.69;5095432;27;20014;-70
2021/12/26 02:25:24;;;;;;;;;;;;;;;3.82;70.57;98650.47;5124920;27;20343;-74
2021/12/26 02:27:50;;;;;;;;;;;;;;;3.81;70.76;98648.88;5114797;28;20441;-73
2021/12/26 02:30:16;;;;;;;;;;;;;;;3.82;70.86;98647.81;5096509;28;19959;-75
2021/12/26 02:32:45;;;;;;;;;;;;;;;3.83;71.32;98652.06;5095857;28;20010;-73
2021/12/26 02:35:11;;;;;;;;;;;;;;;3.85;71.22;98663.22;5114666;28;20399;-73
2021/12/26 02:37:36;;;;;;;;;;;;;;;3.86;71.16;98659.53;5114109;28;19981;-74
2021/12/26 02:40:03;;;;;;;;;;;;;;;3.89;71.29;98666.19;5096143;28;19923;-75
2021/12/26 02:42:28;;;;;;;;;;;;;;;3.89;70.81;98664.34;5096439;28;19976;-75
2021/12/26 02:44:53;;;;;;;;;;;;;;;3.89;70.43;98664.34;5096464;28;19916;-75
2021/12/26 02:47:30;;;;;;;;;;;;;;;3.90;70.38;98667.81;5114300;28;19927;-74
2021/12/26 02:50:19;;;;;;;;;;;;;;;3.90;70.63;98667.81;5113764;28;19920;-75
2021/12/26 02:52:45;;;;;;;;;;;;;;;3.89;70.77;98658.25;5086465;28;19967;-74
2021/12/26 02:55:11;;;;;;;;;;;;;;;3.87;70.73;98658.50;5094922;28;19920;-74
2021/12/26 02:57:37;;;;;;;;;;;;;;;3.86;70.83;98664.84;5114421;28;19924;-72
2021/12/26 03:00:10;;;;;;;;;;;;;;;3.83;70.68;98657.38;5114006;28;20387;-72
2021/12/26 03:02:35;;;;;;;;;;;;;;;3.81;70.86;98656.81;5095416;28;20325;-72
2021/12/26 03:05:03;;;;;;;;;;;;;;;3.79;71.22;98664.19;5113543;28;19920;-73
2021/12/26 03:07:29;;;;;;;;;;;;;;;3.79;71.04;98669.47;5114130;28;19947;-73
2021/12/26 03:09:59;;;;;;;;;;;;;;;3.77;70.99;98669.72;5114115;28;20015;-73
2021/12/26 03:12:25;;;;;;;;;;;;;;;3.75;71.22;98674.44;5113476;28;19969;-72
2021/12/26 03:14:50;;;;;;;;;;;;;;;3.74;71.31;98672.06;5095631;28;19923;-73
2021/12/26 03:17:15;;;;;;;;;;;;;;;3.73;71.41;98676.53;5095845;28;20109;-71
2021/12/26 03:19:40;;;;;;;;;;;;;;;3.73;71.36;98684.47;5114295;28;19919;-71
2021/12/26 03:22:06;;;;;;;;;;;;;;;3.71;71.71;98683.91;5113604;28;19927;-71
2021/12/26 03:24:32;;;;;;;;;;;;;;;3.67;71.77;98675.66;5113108;28;19920;-72
2021/12/26 03:27:02;;;;;;;;;;;;;;;3.67;71.92;98666.91;5114111;28;19920;-71
2021/12/26 03:29:27;;;;;;;;;;;;;;;3.67;72.02;98677.47;5095403;28;20275;-73
2021/12/26 03:31:53;;;;;;;;;;;;;;;3.67;72.17;98685.41;5113218;28;19926;-73
2021/12/26 03:34:18;;;;;;;;;;;;;;;3.66;72.02;98684.63;5113781;28;19977;-72
2021/12/26 03:36:44;;;;;;;;;;;;;;;3.67;72.20;98686.22;5113536;28;20022;-71
2021/12/26 03:39:09;;;;;;;;;;;;;;;3.67;72.26;98683.59;5113097;28;19920;-71
2021/12/26 03:41:34;;;;;;;;;;;;;;;3.68;72.26;98668.50;5095533;28;19915;-73
2021/12/26 03:44:00;;;;;;;;;;;;;;;3.69;72.34;98665.63;5113284;28;20070;-73
2021/12/26 03:46:25;;;;;;;;;;;;;;;3.69;72.74;98662.19;5095513;28;19922;-71
2021/12/26 03:48:50;;;;;;;;;;;;;;;3.73;72.58;98673.09;5113173;28;19920;-71
2021/12/26 03:51:16;;;;;;;;;;;;;;;3.73;72.82;98684.47;5113570;28;19920;-71
2021/12/26 03:53:41;;;;;;;;;;;;;;;3.74;72.46;98672.06;5113092;28;19969;-72
2021/12/26 03:56:06;;;;;;;;;;;;;;;3.74;72.68;98677.34;5095158;28;19920;-72
2021/12/26 03:58:31;;;;;;;;;;;;;;;3.73;72.91;98683.66;5094971;28;19930;-73
2021/12/26 04:00:57;;;;;;;;;;;;;;;3.72;73.07;98685.50;5113292;28;19974;-72
2021/12/26 04:03:23;;;;;;;;;;;;;;;3.72;73.26;98679.41;5113190;28;19916;-72
2021/12/26 04:05:49;;;;;;;;;;;;;;;3.74;73.35;98679.97;5094250;28;19923;-72
2021/12/26 04:08:14;;;;;;;;;;;;;;;3.71;73.65;98683.09;5112893;28;19920;-72
2021/12/26 04:10:40;;;;;;;;;;;;;;;3.70;73.74;98679.66;5112553;28;19920;-73
2021/12/26 04:13:06;;;;;;;;;;;;;;;3.73;73.67;98686.31;5112808;28;19920;-72
2021/12/26 04:15:31;;;;;;;;;;;;;;;3.75;73.34;98673.63;5113236;28;19915;-72
2021/12/26 04:17:57;;;;;;;;;;;;;;;3.77;73.51;98675.03;5112976;28;19979;-72
2021/12/26 04:20:23;;;;;;;;;;;;;;;3.80;73.09;98676.38;5112135;28;19923;-72
2021/12/26 04:22:49;;;;;;;;;;;;;;;3.80;73.00;98679.81;5112827;28;19923;-72
2021/12/26 04:25:14;;;;;;;;;;;;;;;3.80;72.75;98679.03;5113084;28;19916;-73
2021/12/26 04:27:39;;;;;;;;;;;;;;;3.77;72.06;98679.50;5094660;28;19916;-72
2021/12/26 04:30:06;;;;;;;;;;;;;;;3.75;72.04;98671.81;5094092;28;19920;-73
2021/12/26 04:32:31;;;;;;;;;;;;;;;3.75;72.08;98670.97;5112007;28;19920;-72
2021/12/26 04:34:57;;;;;;;;;;;;;;;3.72;72.47;98660.91;5112608;28;19922;-72
2021/12/26 04:37:22;;;;;;;;;;;;;;;3.71;72.60;98670.69;5094601;28;19916;-74
2021/12/26 04:39:47;;;;;;;;;;;;;;;3.71;72.79;98667.22;5093784;28;19927;-74
2021/12/26 04:42:13;;;;;;;;;;;;;;;3.71;72.82;98675.97;5111720;28;19928;-74
2021/12/26 04:44:38;;;;;;;;;;;;;;;3.71;72.82;98673.34;5111824;28;19920;-74
2021/12/26 04:47:03;;;;;;;;;;;;;;;3.72;72.69;98674.13;5124700;27;20287;-76
2021/12/26 04:49:29;;;;;;;;;;;;;;;3.73;72.85;98675.72;5094379;28;19923;-78
2021/12/26 04:51:54;;;;;;;;;;;;;;;3.73;72.80;98670.44;5091022;28;19943;-72
2021/12/26 04:54:19;;;;;;;;;;;;;;;3.75;72.76;98674.44;5111077;28;19928;-72
2021/12/26 04:56:45;;;;;;;;;;;;;;;3.73;72.85;98665.16;5093808;28;19920;-73
2021/12/26 04:59:11;;;;;;;;;;;;;;;3.71;72.90;98672.53;5109848;28;20290;-72
2021/12/26 05:01:36;;;;;;;;;;;;;;;3.70;72.86;98671.72;5112304;28;19976;-70
2021/12/26 05:04:03;;;;;;;;;;;;;;;3.70;72.91;98682.31;5111956;28;20364;-72
2021/12/26 05:06:28;;;;;;;;;;;;;;;3.69;72.99;98686.00;5112169;28;19919;-73
2021/12/26 05:08:54;;;;;;;;;;;;;;;3.69;72.90;98678.84;5093841;28;19922;-71
2021/12/26 05:11:19;;;;;;;;;;;;;;;3.69;72.99;98673.56;5106203;28;19926;-71
2021/12/26 05:13:44;;;;;;;;;;;;;;;3.69;73.09;98665.63;5093376;28;19920;-72
2021/12/26 05:16:10;;;;;;;;;;;;;;;3.69;73.50;98660.34;5111566;28;19920;-71
2021/12/26 05:18:35;;;;;;;;;;;;;;;3.69;73.01;98656.91;5111735;28;19916;-70
2021/12/26 05:21:00;;;;;;;;;;;;;;;3.68;73.11;98655.28;5093557;28;19989;-74
2021/12/26 05:23:26;;;;;;;;;;;;;;;3.66;73.00;98665.28;5111803;28;19946;-74
2021/12/26 05:25:51;;;;;;;;;;;;;;;3.63;72.81;98661.28;5111372;28;20370;-72
2021/12/26 05:28:16;;;;;;;;;;;;;;;3.62;73.10;98662.31;5111666;28;19920;-71
2021/12/26 05:30:42;;;;;;;;;;;;;;;3.62;73.19;98661.53;5111507;28;19924;-71
2021/12/26 05:33:07;;;;;;;;;;;;;;;3.63;73.63;98665.78;5093318;28;19922;-71
2021/12/26 05:35:33;;;;;;;;;;;;;;;3.63;73.48;98668.44;5110954;28;19920;-72
2021/12/26 05:37:59;;;;;;;;;;;;;;;3.60;73.70;98666.25;5111608;28;19915;-72
2021/12/26 05:40:24;;;;;;;;;;;;;;;3.59;73.85;98668.13;5111602;28;20053;-72
2021/12/26 05:42:49;;;;;;;;;;;;;;;3.60;74.12;98668.91;5111947;28;19923;-72
2021/12/26 05:45:15;;;;;;;;;;;;;;;3.60;74.24;98672.38;5111299;28;19920;-71
2021/12/26 05:47:41;;;;;;;;;;;;;;;3.62;74.38;98680.84;5111889;28;19916;-72
2021/12/26 05:50:07;;;;;;;;;;;;;;;3.64;74.68;98684.06;5092894;28;19988;-72
2021/12/26 05:52:32;;;;;;;;;;;;;;;3.69;74.74;98683.34;5093358;28;19922;-72
2021/12/26 05:54:58;;;;;;;;;;;;;;;3.73;75.06;98681.81;5111544;28;19920;-72
2021/12/26 05:57:23;;;;;;;;;;;;;;;3.80;75.15;98676.38;5111439;28;20279;-73
2021/12/26 05:59:49;;;;;;;;;;;;;;;3.83;74.62;98673.25;5111237;28;19919;-73
2021/12/26 06:02:14;;;;;;;;;;;;;;;3.85;74.56;98687.03;5111140;28;20309;-73
2021/12/26 06:04:40;;;;;;;;;;;;;;;3.87;74.34;98687.59;5110831;28;19919;-73
2021/12/26 06:07:06;;;;;;;;;;;;;;;3.91;74.29;98683.44;5084296;28;19920;-73
2021/12/26 06:09:31;;;;;;;;;;;;;;;3.95;74.13;98689.81;5100679;28;20026;-73
2021/12/26 06:11:57;;;;;;;;;;;;;;;3.97;74.10;98686.97;5110835;28;19919;-73
2021/12/26 06:14:22;;;;;;;;;;;;;;;3.98;74.03;98681.41;5111160;28;19981;-72
2021/12/26 06:16:47;;;;;;;;;;;;;;;4.01;73.67;98685.44;5110455;28;19926;-72
2021/12/26 06:19:12;;;;;;;;;;;;;;;4.00;73.49;98684.63;5111054;28;19923;-72
2021/12/26 06:21:38;;;;;;;;;;;;;;;3.99;73.72;98696.25;5111189;28;20002;-72
2021/12/26 06:24:03;;;;;;;;;;;;;;;4.00;73.71;98687.28;5111323;28;19916;-72
2021/12/26 06:26:30;;;;;;;;;;;;;;;4.03;74.11;98686.00;5108217;28;19919;-72
2021/12/26 06:28:55;;;;;;;;;;;;;;;4.08;74.21;98677.34;5111869;28;19941;-72
2021/12/26 06:31:21;;;;;;;;;;;;;;;4.10;74.26;98683.16;5115258;28;20344;-71
2021/12/26 06:33:46;;;;;;;;;;;;;;;4.12;74.04;98666.00;5115016;28;20344;-74
2021/12/26 06:36:12;;;;;;;;;;;;;;;4.14;73.56;98674.50;5114664;28;19959;-74
2021/12/26 06:38:38;;;;;;;;;;;;;;;4.15;73.89;98685.88;5096499;28;19977;-74
2021/12/26 06:41:04;;;;;;;;;;;;;;;4.13;74.08;98694.06;5096514;28;19955;-75
2021/12/26 06:43:30;;;;;;;;;;;;;;;4.15;74.06;98697.28;5114223;28;19919;-75
2021/12/26 06:45:55;;;;;;;;;;;;;;;4.19;73.90;98712.66;5096521;28;20006;-76
2021/12/26 06:48:21;;;;;;;;;;;;;;;4.23;73.76;98711.16;5096118;28;20204;-76
2021/12/26 06:50:47;;;;;;;;;;;;;;;4.26;73.88;98705.38;5096351;28;20011;-75
2021/12/26 06:53:13;;;;;;;;;;;;;;;4.27;73.74;98691.09;5095935;28;19965;-76
2021/12/26 06:55:38;;;;;;;;;;;;;;;4.31;73.70;98698.31;5096282;28;19916;-75
2021/12/26 06:58:04;;;;;;;;;;;;;;;4.35;73.48;98693.34;5096086;28;20435;-75
2021/12/26 07:00:30;;;;;;;;;;;;;;;4.39;73.53;98696.28;5114026;28;19920;-76
2021/12/26 07:02:55;;;;;;;;;;;;;;;4.43;73.54;98708.81;5096235;28;20390;-75
2021/12/26 07:05:20;;;;;;;;;;;;;;;4.47;73.51;98715.22;5113241;28;19919;-72
2021/12/26 07:07:46;;;;;;;;;;;;;;;4.51;73.15;98720.03;5114676;28;19958;-72
2021/12/26 07:10:11;;;;;;;;;;;;;;;4.54;73.28;98719.53;5095767;28;19963;-73
2021/12/26 07:12:36;;;;;;;;;;;;;;;4.55;73.06;98710.53;5113090;28;20420;-72
2021/12/26 07:15:02;;;;;;;;;;;;;;;4.58;72.79;98704.78;5113513;28;19920;-73
2021/12/26 07:17:27;;;;;;;;;;;;;;;4.56;73.10;98710.28;5099419;28;19916;-72
2021/12/26 07:19:53;;;;;;;;;;;;;;;4.54;72.97;98714.22;5105569;28;19989;-72
2021/12/26 07:22:18;;;;;;;;;;;;;;;4.54;73.15;98711.59;5112804;28;19919;-70
2021/12/26 07:24:43;;;;;;;;;;;;;;;4.52;73.24;98714.47;5114486;28;19923;-71
2021/12/26 07:27:12;;;;;;;;;;;;;;;4.53;73.46;98717.91;5114060;28;19916;-71
2021/12/26 07:29:37;;;;;;;;;;;;;;;4.54;73.33;98720.34;5114050;28;20018;-71
2021/12/26 07:32:03;;;;;;;;;;;;;;;4.54;73.55;98728.28;5114093;28;20005;-71
2021/12/26 07:34:28;;;;;;;;;;;;;;;4.55;74.17;98715.84;5112757;28;20028;-73
2021/12/26 07:36:53;;;;;;;;;;;;;;;4.57;75.25;98719.06;5113361;28;19919;-73
2021/12/26 07:39:18;;;;;;;;;;;;;;;4.58;75.43;98718.81;5113706;28;19919;-73
2021/12/26 07:41:44;;;;;;;;;;;;;;;4.63;75.42;98713.56;5113138;28;20010;-73
2021/12/26 07:44:09;;;;;;;;;;;;;;;4.68;75.58;98706.75;5113619;28;19915;-73
2021/12/26 07:46:34;;;;;;;;;;;;;;;4.73;75.46;98707.59;5113359;28;20026;-74
2021/12/26 07:49:00;;;;;;;;;;;;;;;4.81;75.33;98706.38;5112806;28;19920;-72
2021/12/26 07:51:25;;;;;;;;;;;;;;;4.90;75.20;98712.06;5113123;28;19920;-74
2021/12/26 07:53:51;;;;;;;;;;;;;;;4.97;74.75;98723.28;5113592;28;19915;-73
2021/12/26 07:56:17;;;;;;;;;;;;;;;5.01;74.16;98721.72;5112668;28;20489;-73
2021/12/26 07:58:42;;;;;;;;;;;;;;;5.07;73.36;98718.06;5113542;28;19971;-74
2021/12/26 08:01:08;;;;;;;;;;;;;;;5.12;72.67;98702.22;5112353;28;19919;-73
2021/12/26 08:03:36;;;;;;;;;;;;;;;5.18;72.41;98704.94;5113480;28;19916;-73
2021/12/26 08:06:02;;;;;;;;;;;;;;;5.22;72.07;98708.69;5112215;28;19970;-74
2021/12/26 08:08:27;;;;;;;;;;;;;;;5.27;71.82;98716.69;5113420;28;19947;-73
2021/12/26 08:10:52;;;;;;;;;;;;;;;5.32;71.30;98703.47;5090057;28;20438;-73
2021/12/26 08:13:18;;;;;;;;;;;;;;;5.39;71.49;98708.59;5112673;28;20393;-72
2021/12/26 08:15:44;;;;;;;;;;;;;;;5.43;71.54;98699.91;5112349;28;19920;-72
2021/12/26 08:18:09;;;;;;;;;;;;;;;5.51;70.90;98696.00;5112170;28;20303;-72
2021/12/26 08:20:34;;;;;;;;;;;;;;;5.54;70.91;98716.72;5094440;28;20432;-73
2021/12/26 08:23:01;;;;;;;;;;;;;;;5.60;71.07;98717.56;5111181;28;19926;-73
2021/12/26 08:25:27;;;;;;;;;;;;;;;5.65;71.15;98720.28;5112481;28;19920;-72
2021/12/26 08:27:52;;;;;;;;;;;;;;;5.70;71.41;98716.84;5111436;28;20267;-73
2021/12/26 08:30:18;;;;;;;;;;;;;;;5.75;70.78;98716.91;5093350;28;19920;-73
2021/12/26 08:32:44;;;;;;;;;;;;;;;5.82;71.15;98719.34;5111641;28;19992;-73
2021/12/26 08:35:09;;;;;;;;;;;;;;;5.89;71.01;98715.41;5093371;28;19945;-73
2021/12/26 08:37:37;;;;;;;;;;;;;;;5.95;71.15;98718.94;5114167;27;19920;-72
2021/12/26 08:40:03;;;;;;;;;;;;;;;6.03;70.98;98720.34;5112227;28;20303;-72
2021/12/26 08:42:28;;;;;;;;;;;;;;;6.09;70.29;98719.31;5112166;28;19920;-73
2021/12/26 08:44:56;;;;;;;;;;;;;;;6.17;70.77;98712.75;5126327;27;20314;-74
2021/12/26 08:47:21;;;;;;;;;;;;;;;6.27;70.95;98707.50;5113815;27;19920;-73
2021/12/26 08:49:47;;;;;;;;;;;;;;;6.38;70.87;98709.19;5112591;27;19973;-74
2021/12/26 08:52:12;;;;;;;;;;;;;;;6.50;69.92;98708.19;5111908;27;19919;-77
2021/12/26 08:54:38;;;;;;;;;;;;;;;6.59;69.99;98705.81;5103315;27;19923;-74
2021/12/26 08:57:04;;;;;;;;;;;;;;;6.69;70.04;98704.03;5097399;28;19919;-77
2021/12/26 08:59:30;;;;;;;;;;;;;;;6.79;69.78;98699.81;5093571;28;20563;-76
2021/12/26 09:01:59;;;;;;;;;;;;;;;6.86;69.84;98687.06;5094399;28;19920;-75
2021/12/26 09:04:25;;;;;;;;;;;;;;;6.94;69.47;98696.44;5123653;27;19919;-74
2021/12/26 09:06:50;;;;;;;;;;;;;;;7.01;69.26;98699.66;5111592;28;19920;-74
2021/12/26 09:09:15;;;;;;;;;;;;;;;7.07;68.85;98701.25;5111482;28;20338;-75
2021/12/26 09:11:41;;;;;;;;;;;;;;;7.14;68.52;98696.50;5093280;28;19920;-74
2021/12/26 09:14:06;;;;;;;;;;;;;;;7.20;68.63;98698.09;5093235;28;20318;-75
2021/12/26 09:16:33;;;;;;;;;;;;;;;7.28;69.06;98703.97;5114678;27;19923;-75
2021/12/26 09:19:00;;;;;;;;;;;;;;;7.31;68.87;98698.94;5112896;27;20010;-75
2021/12/26 09:21:25;;;;;;;;;;;;;;;7.36;68.58;98698.94;5093865;27;19919;-74
2021/12/26 09:23:51;;;;;;;;;;;;;;;7.42;68.76;98698.94;5116682;27;20406;-77
2021/12/26 09:26:16;;;;;;;;;;;;;;;7.48;68.94;98697.88;5092724;28;19927;-76
2021/12/26 09:28:41;;;;;;;;;;;;;;;7.52;69.07;98691.00;5110850;28;20550;-75
2021/12/26 09:31:07;;;;;;;;;;;;;;;7.57;68.71;98672.38;5093009;28;19974;-75
2021/12/26 09:33:32;;;;;;;;;;;;;;;7.62;69.23;98675.03;5092186;28;20382;-74
2021/12/26 09:35:59;;;;;;;;;;;;;;;7.64;67.05;98680.88;5110722;28;19920;-74
2021/12/26 09:38:24;;;;;;;;;;;;;;;7.63;67.43;98673.16;5110566;28;19915;-74
2021/12/26 09:40:49;;;;;;;;;;;;;;;7.63;68.05;98681.13;5110814;28;19973;-74
2021/12/26 09:43:15;;;;;;;;;;;;;;;7.64;67.94;98667.59;5110631;28;19920;-74
2021/12/26 09:45:40;;;;;;;;;;;;;;;7.65;68.38;98669.19;5110644;28;19967;-74
2021/12/26 09:48:06;;;;;;;;;;;;;;;7.61;68.89;98662.78;5110930;28;20378;-74
2021/12/26 09:50:31;;;;;;;;;;;;;;;7.69;67.46;98678.22;5108910;28;19927;-74
2021/12/26 09:52:56;;;;;;;;;;;;;;;7.69;67.73;98672.91;5125728;28;20301;-73
2021/12/26 09:55:25;;;;;;;;;;;;;;;7.65;66.99;98671.84;5113176;28;19915;-77
2021/12/26 09:57:50;;;;;;;;;;;;;;;7.64;67.38;98685.38;5112350;28;19924;-74
2021/12/26 10:00:19;;;;;;;;;;;;;;;7.66;68.22;98677.94;5120084;28;19934;-75
2021/12/26 10:02:44;;;;;;;;;;;;;;;7.66;67.86;98668.09;5131574;28;20007;-73
2021/12/26 10:05:09;;;;;;;;;;;;;;;7.62;66.98;98688.31;5134518;27;20358;-74
2021/12/26 10:07:35;;;;;;;;;;;;;;;7.57;67.30;98683.00;5135840;27;20010;-73
2021/12/26 10:10:04;;;;;;;;;;;;;;;7.53;67.70;98680.06;5135569;27;20374;-73
2021/12/26 10:12:37;;;;;;;;;;;;;;;7.52;66.84;98683.00;5135040;27;19915;-74
2021/12/26 10:15:03;;;;;;;;;;;;;;;7.43;66.86;98690.69;5116982;27;20390;-72
2021/12/26 10:17:28;;;;;;;;;;;;;;;7.33;67.33;98686.16;5134943;27;19962;-73
2021/12/26 10:20:20;;;;;;;;;;;;;;;7.27;67.44;98691.72;5117046;27;19916;-75
2021/12/26 10:22:45;;;;;;;;;;;;;;;7.22;67.86;98687.19;5112543;27;20382;-74
2021/12/26 10:25:11;;;;;;;;;;;;;;;7.17;68.09;98680.00;5134885;27;19980;-74
2021/12/26 10:27:37;;;;;;;;;;;;;;;7.15;67.40;98674.16;5116844;27;20369;-74
2021/12/26 10:30:04;;;;;;;;;;;;;;;7.17;68.08;98666.69;5135254;27;19954;-74
2021/12/26 10:32:32;;;;;;;;;;;;;;;7.17;67.96;98672.03;5135070;27;20366;-73
2021/12/26 10:34:59;;;;;;;;;;;;;;;7.18;68.48;98670.97;5135558;27;19979;-74
2021/12/26 10:37:30;;;;;;;;;;;;;;;7.20;68.38;98668.84;5135264;27;19923;-73
2021/12/26 10:39:58;;;;;;;;;;;;;;;7.21;68.78;98669.63;5117165;27;19923;-73
2021/12/26 10:42:25;;;;;;;;;;;;;;;7.27;68.80;98670.47;5135321;27;19916;-73
2021/12/26 10:44:54;;;;;;;;;;;;;;;7.30;68.33;98667.25;5117090;27;19923;-74
2021/12/26 10:47:21;;;;;;;;;;;;;;;7.33;68.54;98675.50;5135222;27;19944;-75
2021/12/26 10:50:06;;;;;;;;;;;;;;;7.41;68.77;98673.41;5135469;27;19916;-73
2021/12/26 10:52:33;;;;;;;;;;;;;;;7.47;68.04;98675.81;5135122;27;19915;-73
2021/12/26 10:55:12;;;;;;;;;;;;;;;7.51;68.55;98671.53;5135200;27;19962;-73
2021/12/26 10:57:37;;;;;;;;;;;;;;;7.59;68.25;98666.75;5135393;27;19920;-73
2021/12/26 11:00:11;;;;;;;;;;;;;;;7.66;67.34;98673.41;5116757;27;20056;-73
2021/12/26 11:02:37;;;;;;;;;;;;;;;7.71;67.33;98664.63;5135179;27;20275;-73
2021/12/26 11:05:06;;;;;;;;;;;;;;;7.77;67.70;98662.78;5116742;27;19922;-73
2021/12/26 11:07:43;;;;;;;;;;;;;;;7.79;67.47;98664.13;5115864;27;19919;-73
2021/12/26 11:10:13;;;;;;;;;;;;;;;7.80;67.31;98663.06;5116580;27;19916;-73
2021/12/26 11:12:40;;;;;;;;;;;;;;;7.81;68.32;98663.84;5134978;27;19919;-73
2021/12/26 11:15:06;;;;;;;;;;;;;;;7.83;67.86;98664.38;5115550;28;19947;-74
2021/12/26 11:17:33;;;;;;;;;;;;;;;7.87;68.44;98670.75;5134397;27;19974;-75
2021/12/26 11:19:59;;;;;;;;;;;;;;;7.85;68.42;98665.72;5135167;27;20404;-75
2021/12/26 11:22:24;;;;;;;;;;;;;;;7.88;68.46;98666.25;5115779;27;19915;-74
2021/12/26 11:24:50;;;;;;;;;;;;;;;7.85;68.49;98665.72;5134418;27;20059;-74
2021/12/26 11:27:15;;;;;;;;;;;;;;;7.81;68.51;98659.31;5134189;27;19965;-75
2021/12/26 11:29:41;;;;;;;;;;;;;;;7.70;68.69;98644.41;5116192;27;19915;-75
2021/12/26 11:32:06;;;;;;;;;;;;;;;7.76;68.96;98661.19;5134342;27;19942;-74
2021/12/26 11:34:33;;;;;;;;;;;;;;;7.73;69.12;98654.53;5134301;27;19942;-73
2021/12/26 11:36:59;;;;;;;;;;;;;;;7.76;69.58;98655.84;5134564;27;19952;-74
2021/12/26 11:39:25;;;;;;;;;;;;;;;7.77;69.31;98654.81;5115507;27;19973;-75
2021/12/26 11:42:05;;;;;;;;;;;;;;;7.76;69.14;98653.19;5134190;27;19916;-74
2021/12/26 11:44:44;;;;;;;;;;;;;;;7.76;69.15;98646.00;5133805;27;19915;-73
2021/12/26 11:47:28;;;;;;;;;;;;;;;7.74;68.79;98648.16;5134349;27;19937;-75
2021/12/26 11:50:03;;;;;;;;;;;;;;;7.75;68.84;98648.94;5134130;27;19915;-74
2021/12/26 11:52:34;;;;;;;;;;;;;;;7.73;68.16;98651.88;5133881;27;19920;-73
2021/12/26 11:55:03;;;;;;;;;;;;;;;7.72;68.74;98652.94;5134089;27;20423;-73
2021/12/26 11:57:44;;;;;;;;;;;;;;;7.76;69.02;98655.84;5134068;27;19922;-73
2021/12/26 12:00:29;;;;;;;;;;;;;;;7.79;68.66;98652.69;5133998;27;19916;-73
2021/12/26 12:02:59;;;;;;;;;;;;;;;7.83;68.69;98646.53;5133170;27;19929;-75
2021/12/26 12:05:36;;;;;;;;;;;;;;;7.88;68.57;98648.41;5133426;27;19963;-73
2021/12/26 12:08:03;;;;;;;;;;;;;;;7.90;68.53;98640.94;5133945;27;20397;-73
2021/12/26 12:10:31;;;;;;;;;;;;;;;7.94;68.79;98634.00;5114819;27;19944;-73
2021/12/26 12:12:57;;;;;;;;;;;;;;;7.98;68.15;98636.94;5114950;27;20075;-75
2021/12/26 12:15:41;;;;;;;;;;;;;;;8.04;68.54;98633.19;5115037;27;19923;-75
2021/12/26 12:18:09;;;;;;;;;;;;;;;8.12;68.25;98635.31;5133478;27;19915;-74
2021/12/26 12:20:34;;;;;;;;;;;;;;;8.18;67.70;98638.78;5133420;27;19958;-73
2021/12/26 12:23:02;;;;;;;;;;;;;;;8.23;67.99;98629.97;5133322;27;20290;-75
2021/12/26 12:25:33;;;;;;;;;;;;;;;8.28;68.01;98630.75;5114860;27;20367;-73
2021/12/26 12:28:13;;;;;;;;;;;;;;;8.34;67.85;98626.22;5133207;27;19972;-73
2021/12/26 12:30:39;;;;;;;;;;;;;;;8.39;67.97;98631.53;5133235;27;19915;-75
2021/12/26 12:33:17;;;;;;;;;;;;;;;8.45;67.46;98630.44;5114978;27;19927;-74
2021/12/26 12:35:51;;;;;;;;;;;;;;;8.48;67.59;98627.25;5133251;27;19916;-75
2021/12/26 12:38:46;;;;;;;;;;;;;;;8.52;67.14;98621.38;5132788;27;20355;-74
2021/12/26 12:41:29;;;;;;;;;;;;;;;8.55;67.41;98618.97;5114889;27;20014;-75
2021/12/26 12:43:56;;;;;;;;;;;;;;;8.58;67.50;98618.44;5114850;27;20350;-75
2021/12/26 12:46:21;;;;;;;;;;;;;;;8.61;67.64;98612.53;5114474;27;19922;-73
2021/12/26 12:49:00;;;;;;;;;;;;;;;8.66;67.48;98611.72;5114616;27;19919;-73
2021/12/26 12:51:25;;;;;;;;;;;;;;;8.69;66.84;98613.03;5114273;27;19923;-73
2021/12/26 12:53:58;;;;;;;;;;;;;;;8.71;67.01;98613.56;5132688;27;19916;-74
2021/12/26 12:56:29;;;;;;;;;;;;;;;8.73;67.26;98606.91;5114256;27;19949;-74